Terminal Aerodrome Forecast
Issued by NWS

Home | Current Version | Previous Version | Text Only | Print | Product List | Glossary On
Versions: 1 2 3 4 5 6 7 8 9 10 11 12 13 14 15 16 17 18 19 20 21 22 23 24 25 26 27 28 29 30 31 32 33 34 35 36 37 38
000
FTUS41 KBOX 101130
TAFACK
TAF
KACK 101130Z 1012/1112 VRB03KT P6SM OVC040
     FM101500 VRB03KT P6SM VCSH OVC030
     FM102100 27007KT P6SM VCSH OVC010
     FM102300 27010KT P6SM BKN015
     FM110200 28012G21KT P6SM BKN035
     FM110900 30011G18KT P6SM BKN030=

USA.gov is the U.S. government's official web portal to all federal, state and local government web resources and services.